createdAt,value
2019-05-13T00:00:44.577Z,7.90
2019-05-13T00:03:14.034Z,7.90
2019-05-13T00:05:44.480Z,7.90
2019-05-13T00:08:14.147Z,7.90
2019-05-13T00:10:44.275Z,7.80
2019-05-13T00:13:14.797Z,7.80
2019-05-13T00:15:44.435Z,7.70
2019-05-13T00:18:14.448Z,7.80
2019-05-13T00:20:44.399Z,7.70
2019-05-13T00:23:14.304Z,7.60
2019-05-13T00:25:44.600Z,7.50
2019-05-13T00:28:14.463Z,7.50
2019-05-13T00:30:44.544Z,7.60
2019-05-13T00:33:14.243Z,7.60
2019-05-13T00:35:44.319Z,7.60
2019-05-13T00:38:14.289Z,7.50
2019-05-13T00:40:44.403Z,7.50
2019-05-13T00:43:14.460Z,7.50
2019-05-13T00:45:45.182Z,7.50
2019-05-13T00:48:14.551Z,7.50
2019-05-13T00:50:44.326Z,7.30
2019-05-13T00:53:13.720Z,7.20
2019-05-13T00:55:41.491Z,7.20
2019-05-13T00:58:13.870Z,7.20
2019-05-13T01:00:44.331Z,7.20
2019-05-13T01:03:14.357Z,7.10
2019-05-13T01:05:44.536Z,7.10
2019-05-13T01:08:14.567Z,7.10
2019-05-13T01:10:45.198Z,7.10
2019-05-13T01:13:14.576Z,7.00
2019-05-13T01:15:44.297Z,7.00
2019-05-13T01:18:14.234Z,7.00
2019-05-13T01:20:43.905Z,7.10
2019-05-13T01:23:14.225Z,7.00
2019-05-13T01:25:44.495Z,7.10
2019-05-13T01:28:13.875Z,7.00
2019-05-13T01:30:43.871Z,6.90
2019-05-13T01:33:14.459Z,7.00
2019-05-13T01:35:44.744Z,6.90
2019-05-13T01:38:13.990Z,6.90
2019-05-13T01:40:43.930Z,6.90
2019-05-13T01:43:14.482Z,6.90
2019-05-13T01:45:44.337Z,6.80
2019-05-13T01:48:14.251Z,6.90
2019-05-13T01:50:44.464Z,6.90
2019-05-13T01:53:14.454Z,6.90
2019-05-13T01:55:44.453Z,6.80
2019-05-13T01:58:14.634Z,6.80
2019-05-13T02:00:44.438Z,6.90
2019-05-13T02:03:14.637Z,6.80
2019-05-13T02:06:05.689Z,6.80
2019-05-13T02:08:34.781Z,6.80
2019-05-13T02:11:04.322Z,6.80
2019-05-13T02:13:34.536Z,6.70
2019-05-13T02:16:04.303Z,6.70
2019-05-13T02:18:34.328Z,6.70
2019-05-13T02:21:05.165Z,6.70
2019-05-13T02:23:34.529Z,6.70
2019-05-13T02:26:04.469Z,6.70
2019-05-13T02:28:33.846Z,6.60
2019-05-13T02:31:02.788Z,6.60
2019-05-13T02:33:33.752Z,6.60
2019-05-13T02:36:03.011Z,6.60
2019-05-13T02:38:35.522Z,6.60
2019-05-13T02:41:03.006Z,6.60
2019-05-13T02:43:33.516Z,6.60
2019-05-13T02:46:04.102Z,6.60
2019-05-13T02:48:33.852Z,6.50
2019-05-13T02:51:03.661Z,6.50
2019-05-13T02:53:33.811Z,6.40
2019-05-13T02:56:03.573Z,6.30
2019-05-13T02:58:33.575Z,6.30
2019-05-13T03:01:03.568Z,6.20
2019-05-13T03:03:33.158Z,6.20
2019-05-13T03:06:03.196Z,6.20
2019-05-13T03:08:43.786Z,6.20
2019-05-13T03:11:03.495Z,6.30
2019-05-13T03:13:33.171Z,6.30
2019-05-13T03:16:13.812Z,6.30
2019-05-13T03:18:43.790Z,6.20
2019-05-13T03:21:13.403Z,6.20
2019-05-13T03:23:44.214Z,6.20
2019-05-13T03:26:13.771Z,6.20
2019-05-13T03:28:43.626Z,6.20
2019-05-13T03:31:16.910Z,6.20
2019-05-13T03:33:46.841Z,6.20
2019-05-13T03:36:16.489Z,6.20
2019-05-13T03:39:01.638Z,6.30
2019-05-13T03:41:17.903Z,6.30
2019-05-13T03:43:48.897Z,6.30
2019-05-13T03:46:22.786Z,6.30
2019-05-13T03:48:53.890Z,6.20
2019-05-13T03:51:23.843Z,6.30
2019-05-13T03:53:53.855Z,6.30
2019-05-13T03:56:24.029Z,6.30
2019-05-13T03:58:54.016Z,6.30
2019-05-13T04:01:23.494Z,6.30
2019-05-13T04:03:52.806Z,6.30
2019-05-13T04:06:23.199Z,6.20
2019-05-13T04:08:53.969Z,6.20
2019-05-13T04:11:23.997Z,6.30
2019-05-13T04:13:53.141Z,6.30
2019-05-13T04:16:23.793Z,6.30
2019-05-13T04:18:53.742Z,6.30
2019-05-13T04:21:23.380Z,6.30
2019-05-13T04:23:53.013Z,6.30
2019-05-13T04:26:23.538Z,6.40
2019-05-13T04:28:53.303Z,6.40
2019-05-13T04:31:22.759Z,6.40
2019-05-13T04:33:53.120Z,6.40
2019-05-13T04:36:23.653Z,6.40
2019-05-13T04:38:53.254Z,6.40
2019-05-13T04:41:23.277Z,6.50
2019-05-13T04:43:53.957Z,6.50
2019-05-13T04:46:23.828Z,6.60
2019-05-13T04:48:53.469Z,6.60
2019-05-13T04:51:22.997Z,6.60
2019-05-13T04:53:56.112Z,6.70
2019-05-13T04:56:23.374Z,6.70
2019-05-13T04:58:53.064Z,6.70
2019-05-13T05:01:40.426Z,6.70
2019-05-13T05:04:24.353Z,6.70
2019-05-13T05:07:05.904Z,6.70
2019-05-13T05:10:13.263Z,6.70
2019-05-13T05:12:32.028Z,6.80
2019-05-13T05:15:15.327Z,6.90
2019-05-13T05:18:11.683Z,6.90
2019-05-13T05:20:53.017Z,6.90
2019-05-13T05:23:31.945Z,7.00
2019-05-13T05:26:01.482Z,7.00
2019-05-13T05:28:54.144Z,7.10
2019-05-13T05:31:35.354Z,7.20
2019-05-13T05:34:38.622Z,7.20
2019-05-13T05:37:16.706Z,7.30
2019-05-13T05:39:48.129Z,7.30
2019-05-13T05:42:21.608Z,7.30
2019-05-13T05:44:51.902Z,7.30
2019-05-13T05:47:22.306Z,7.30
2019-05-13T05:49:53.598Z,7.30
2019-05-13T05:52:24.097Z,7.40
2019-05-13T05:54:53.816Z,7.50
2019-05-13T05:57:24.423Z,7.60
2019-05-13T05:59:56.136Z,7.60
2019-05-13T06:02:27.720Z,7.70
2019-05-13T06:04:57.864Z,7.80
2019-05-13T06:07:27.354Z,7.80
2019-05-13T06:09:56.671Z,7.80
2019-05-13T06:12:24.535Z,7.90
2019-05-13T06:14:53.200Z,7.90
2019-05-13T06:17:22.037Z,8.00
2019-05-13T06:19:51.395Z,8.10
2019-05-13T06:22:21.472Z,8.10
2019-05-13T06:24:52.008Z,8.20
2019-05-13T06:27:21.405Z,8.20
2019-05-13T06:29:52.902Z,8.20
2019-05-13T06:32:26.081Z,8.30
2019-05-13T06:34:52.707Z,8.30
2019-05-13T06:37:22.276Z,8.40
2019-05-13T06:39:51.487Z,8.50
2019-05-13T06:42:22.031Z,8.50
2019-05-13T06:44:51.497Z,8.50
2019-05-13T06:47:21.929Z,8.60
2019-05-13T06:49:51.689Z,8.70
2019-05-13T06:52:21.347Z,8.80
2019-05-13T06:54:52.042Z,8.90
2019-05-13T06:57:22.055Z,8.90
2019-05-13T06:59:52.395Z,8.90
2019-05-13T07:02:21.869Z,9.00
2019-05-13T07:04:51.680Z,9.10
2019-05-13T07:07:21.896Z,9.20
2019-05-13T07:09:51.717Z,9.30
2019-05-13T07:12:21.919Z,9.30
2019-05-13T07:14:51.981Z,9.40
2019-05-13T07:17:22.333Z,9.50
2019-05-13T07:19:51.904Z,9.50
2019-05-13T07:22:22.865Z,9.50
2019-05-13T07:24:51.920Z,9.60
2019-05-13T07:27:22.905Z,9.70
2019-05-13T07:29:55.117Z,9.80
2019-05-13T07:32:22.707Z,9.90
2019-05-13T07:34:53.176Z,9.90
2019-05-13T07:37:21.866Z,9.90
2019-05-13T07:39:53.052Z,10.10
2019-05-13T07:42:22.403Z,10.10
2019-05-13T07:44:52.198Z,10.10
2019-05-13T07:47:22.315Z,10.10
2019-05-13T07:49:51.803Z,10.20
2019-05-13T07:52:19.655Z,10.20
2019-05-13T07:54:48.875Z,10.30
2019-05-13T07:57:17.661Z,10.40
2019-05-13T07:59:46.183Z,10.50
2019-05-13T08:02:15.949Z,10.50
2019-05-13T08:04:43.735Z,10.60
2019-05-13T08:07:12.402Z,10.70
2019-05-13T08:09:41.870Z,10.70
2019-05-13T08:12:13.906Z,10.80
2019-05-13T08:14:43.526Z,10.90
2019-05-13T08:17:12.124Z,10.90
2019-05-13T08:19:41.386Z,10.90
2019-05-13T08:22:12.138Z,11.00
2019-05-13T08:24:42.528Z,11.10
2019-05-13T08:27:11.979Z,11.20
2019-05-13T08:29:41.919Z,11.20
2019-05-13T08:32:11.297Z,11.20
2019-05-13T08:34:41.795Z,11.20
2019-05-13T08:37:11.463Z,11.30
2019-05-13T08:39:41.452Z,11.40
2019-05-13T08:42:15.830Z,11.40
2019-05-13T08:44:41.832Z,11.50
2019-05-13T08:47:12.098Z,11.60
2019-05-13T08:49:41.647Z,11.60
2019-05-13T08:52:12.039Z,11.60
2019-05-13T08:54:41.947Z,11.60
2019-05-13T08:57:11.925Z,11.70
2019-05-13T08:59:42.210Z,11.70
2019-05-13T09:02:11.752Z,11.80
2019-05-13T09:04:42.213Z,11.80
2019-05-13T09:07:12.155Z,11.80
2019-05-13T09:09:41.950Z,11.80
2019-05-13T09:12:11.776Z,11.90
2019-05-13T09:14:42.628Z,11.90
2019-05-13T09:17:12.174Z,11.90
2019-05-13T09:19:41.568Z,12.00
2019-05-13T09:22:12.339Z,12.00
2019-05-13T09:24:42.516Z,12.00
2019-05-13T09:27:12.172Z,12.10
2019-05-13T09:29:42.714Z,12.20
2019-05-13T09:32:12.342Z,12.20
2019-05-13T09:34:42.308Z,12.30
2019-05-13T09:37:11.985Z,12.40
2019-05-13T09:39:41.579Z,12.40
2019-05-13T09:42:12.719Z,12.40
2019-05-13T09:44:41.918Z,12.40
2019-05-13T09:47:12.428Z,12.40
2019-05-13T09:49:42.241Z,12.40
2019-05-13T09:52:12.117Z,12.40
2019-05-13T09:54:42.440Z,12.40
2019-05-13T09:57:12.355Z,12.50
2019-05-13T09:59:42.173Z,12.50
2019-05-13T10:02:12.433Z,12.60
2019-05-13T10:04:43.713Z,12.60
2019-05-13T10:07:12.562Z,12.60
2019-05-13T10:09:42.943Z,12.70
2019-05-13T10:12:12.472Z,12.70
2019-05-13T10:14:40.357Z,12.70
2019-05-13T10:17:09.288Z,12.60
2019-05-13T10:19:38.444Z,12.60
2019-05-13T10:22:06.533Z,12.70
2019-05-13T10:24:35.623Z,12.90
2019-05-13T10:27:04.637Z,12.90
2019-05-13T10:29:34.335Z,12.90
2019-05-13T10:32:04.249Z,12.90
2019-05-13T10:34:34.271Z,13.00
2019-05-13T10:37:03.395Z,13.00
2019-05-13T10:39:32.401Z,13.10
2019-05-13T10:42:03.695Z,13.10
2019-05-13T10:44:32.233Z,13.10
2019-05-13T10:47:02.004Z,13.10
2019-05-13T10:49:33.038Z,13.20
2019-05-13T10:52:03.119Z,13.20
2019-05-13T10:54:32.486Z,13.10
2019-05-13T10:57:03.953Z,13.20
2019-05-13T10:59:32.268Z,13.30
2019-05-13T11:02:02.279Z,13.40
2019-05-13T11:04:32.054Z,13.40
2019-05-13T11:07:03.017Z,13.40
2019-05-13T11:09:32.645Z,13.40
2019-05-13T11:12:02.131Z,13.50
2019-05-13T11:14:32.277Z,13.50
2019-05-13T11:17:01.770Z,13.50
2019-05-13T11:19:36.084Z,13.50
2019-05-13T11:22:02.854Z,13.60
2019-05-13T11:24:32.511Z,13.60
2019-05-13T11:27:02.733Z,13.60
2019-05-13T11:29:32.548Z,13.60
2019-05-13T11:32:02.640Z,13.70
2019-05-13T11:34:32.900Z,13.70
2019-05-13T11:37:03.702Z,13.70
2019-05-13T11:39:32.902Z,13.80
2019-05-13T11:42:02.342Z,13.90
2019-05-13T11:44:32.173Z,13.90
2019-05-13T11:47:02.311Z,13.90
2019-05-13T11:49:31.950Z,13.90
2019-05-13T11:52:01.883Z,13.90
2019-05-13T11:54:30.017Z,14.00
2019-05-13T11:57:02.739Z,14.00
2019-05-13T11:59:29.097Z,14.00
2019-05-13T12:01:56.830Z,14.20
2019-05-13T12:04:25.794Z,14.20
2019-05-13T12:06:54.836Z,14.20
2019-05-13T12:09:23.846Z,14.10
2019-05-13T12:11:52.710Z,14.30
2019-05-13T12:14:43.126Z,14.30
2019-05-13T12:16:50.753Z,14.30
2019-05-13T12:19:21.920Z,14.30
2019-05-13T12:21:54.074Z,14.30
2019-05-13T12:24:22.641Z,14.30
2019-05-13T12:26:53.276Z,14.40
2019-05-13T12:29:21.985Z,14.40
2019-05-13T12:31:52.724Z,14.40
2019-05-13T12:34:22.113Z,14.50
2019-05-13T12:36:50.555Z,14.50
2019-05-13T12:39:18.355Z,14.50
2019-05-13T12:41:47.209Z,14.60
2019-05-13T12:44:15.045Z,14.70
2019-05-13T12:46:49.983Z,14.90
2019-05-13T12:49:14.718Z,15.00
2019-05-13T12:51:44.065Z,15.00
2019-05-13T12:54:13.945Z,15.20
2019-05-13T12:56:43.331Z,15.40
2019-05-13T12:59:13.223Z,15.50
2019-05-13T13:01:42.458Z,15.50
2019-05-13T13:04:12.197Z,15.30
2019-05-13T13:06:45.149Z,15.30
2019-05-13T13:09:13.001Z,15.40
2019-05-13T13:11:43.564Z,15.40
2019-05-13T13:14:15.425Z,15.40
2019-05-13T13:16:43.294Z,15.50
2019-05-13T13:19:14.846Z,15.40
2019-05-13T13:21:42.720Z,15.40
2019-05-13T13:24:12.329Z,15.50
2019-05-13T13:26:42.722Z,15.60
2019-05-13T13:29:11.284Z,15.60
2019-05-13T13:31:43.223Z,15.60
2019-05-13T13:34:16.360Z,15.80
2019-05-13T13:36:45.948Z,16.00
2019-05-13T13:39:14.881Z,15.90
2019-05-13T13:41:43.658Z,15.70
2019-05-13T13:44:13.007Z,15.70
2019-05-13T13:46:44.444Z,15.70
2019-05-13T13:49:14.057Z,15.80
2019-05-13T13:51:44.569Z,16.00
2019-05-13T13:54:13.522Z,16.20
2019-05-13T13:56:43.893Z,16.40
2019-05-13T13:59:13.739Z,16.50
2019-05-13T14:01:43.044Z,16.50
2019-05-13T14:04:16.440Z,16.60
2019-05-13T14:09:12.979Z,16.80
2019-05-13T14:11:42.091Z,17.10
2019-05-13T14:14:12.375Z,17.30
2019-05-13T14:16:42.750Z,17.40
2019-05-13T14:19:11.907Z,18.10
2019-05-13T14:21:41.591Z,18.40
2019-05-13T14:24:12.118Z,18.30
2019-05-13T14:26:43.382Z,18.00
2019-05-13T14:29:12.311Z,18.70
2019-05-13T14:31:41.562Z,20.40
2019-05-13T14:34:11.533Z,21.80
2019-05-13T14:36:40.575Z,22.70
2019-05-13T14:39:11.863Z,22.60
2019-05-13T14:41:42.374Z,24.80
2019-05-13T14:44:12.452Z,25.50
2019-05-13T14:46:47.006Z,25.20
2019-05-13T14:49:12.353Z,26.40
2019-05-13T14:51:41.631Z,26.40
2019-05-13T14:54:10.516Z,26.60
2019-05-13T14:56:41.848Z,26.70
2019-05-13T14:59:11.734Z,26.00
2019-05-13T15:01:41.345Z,24.60
2019-05-13T15:04:12.305Z,23.20
2019-05-13T15:06:41.754Z,23.10
2019-05-13T15:09:12.540Z,23.70
2019-05-13T15:11:41.908Z,23.50
2019-05-13T15:14:11.644Z,22.40
2019-05-13T15:16:42.424Z,22.30
2019-05-13T15:19:11.979Z,21.10
2019-05-13T15:21:41.635Z,20.90
2019-05-13T15:24:12.346Z,19.10
2019-05-13T15:26:42.217Z,19.90
2019-05-13T15:29:11.569Z,20.90
2019-05-13T15:31:42.137Z,22.30
2019-05-13T15:34:11.201Z,23.50
2019-05-13T15:36:41.914Z,24.10
2019-05-13T15:39:11.736Z,24.10
2019-05-13T15:41:41.824Z,23.30
2019-05-13T15:44:11.466Z,24.10
2019-05-13T15:46:41.772Z,23.40
2019-05-13T15:49:12.374Z,23.20
2019-05-13T15:51:42.201Z,24.30
2019-05-13T15:54:15.261Z,25.10
2019-05-13T15:56:41.927Z,24.20
2019-05-13T15:59:12.542Z,22.50
2019-05-13T16:01:41.562Z,22.60
2019-05-13T16:04:12.779Z,22.00
2019-05-13T16:06:41.824Z,22.60
2019-05-13T16:09:11.708Z,21.80
2019-05-13T16:11:41.441Z,22.20
2019-05-13T16:14:11.634Z,23.20
2019-05-13T16:16:41.774Z,23.80
2019-05-13T16:19:10.935Z,24.20
2019-05-13T16:21:41.616Z,24.20
2019-05-13T16:24:11.978Z,24.60
2019-05-13T16:26:42.624Z,24.30
2019-05-13T16:29:12.765Z,23.20
2019-05-13T16:31:41.833Z,22.70
2019-05-13T16:34:11.157Z,23.30
2019-05-13T16:36:42.985Z,22.60
2019-05-13T16:39:12.470Z,22.10
2019-05-13T16:41:42.678Z,22.10
2019-05-13T16:44:12.145Z,21.90
2019-05-13T16:46:42.458Z,21.50
2019-05-13T16:49:12.188Z,21.00
2019-05-13T16:51:42.629Z,20.30
2019-05-13T16:54:11.754Z,19.60
2019-05-13T16:56:42.083Z,19.10
2019-05-13T16:59:11.169Z,18.50
2019-05-13T17:01:41.969Z,18.00
2019-05-13T17:04:12.580Z,17.80
2019-05-13T17:06:41.640Z,17.20
2019-05-13T17:09:11.518Z,16.90
2019-05-13T17:11:41.483Z,16.20
2019-05-13T17:14:10.547Z,16.20
2019-05-13T17:16:41.368Z,15.80
2019-05-13T17:19:12.000Z,15.60
2019-05-13T17:21:41.069Z,15.50
2019-05-13T17:24:12.511Z,15.00
2019-05-13T17:26:41.797Z,15.00
2019-05-13T17:29:12.068Z,15.00
2019-05-13T17:31:41.620Z,14.90
2019-05-13T17:34:12.140Z,14.80
2019-05-13T17:36:42.170Z,15.00
2019-05-13T17:39:12.557Z,14.90
2019-05-13T17:41:41.733Z,15.00
2019-05-13T17:44:11.456Z,14.90
2019-05-13T17:46:41.925Z,14.80
2019-05-13T17:49:11.788Z,14.40
2019-05-13T17:51:42.553Z,14.20
2019-05-13T17:54:11.982Z,14.20
2019-05-13T17:56:41.061Z,14.30
2019-05-13T17:59:11.196Z,14.30
2019-05-13T18:01:41.234Z,14.20
2019-05-13T18:04:11.942Z,14.20
2019-05-13T18:06:41.743Z,14.10
2019-05-13T18:09:12.013Z,14.00
2019-05-13T18:11:41.737Z,14.10
2019-05-13T18:14:11.402Z,14.00
2019-05-13T18:16:42.011Z,13.90
2019-05-13T18:19:11.913Z,13.90
2019-05-13T18:21:42.450Z,13.80
2019-05-13T18:24:11.996Z,13.80
2019-05-13T18:26:41.887Z,13.70
2019-05-13T18:29:12.239Z,13.50
2019-05-13T18:31:42.184Z,13.30
2019-05-13T18:34:12.249Z,13.30
2019-05-13T18:36:42.673Z,13.20
2019-05-13T18:39:12.394Z,13.10
2019-05-13T18:41:41.534Z,13.10
2019-05-13T18:44:12.298Z,13.10
2019-05-13T18:46:41.711Z,12.90
2019-05-13T18:49:12.017Z,12.80
2019-05-13T18:51:42.229Z,12.70
2019-05-13T18:54:11.882Z,12.60
2019-05-13T18:56:41.735Z,12.40
2019-05-13T18:59:12.596Z,12.30
2019-05-13T19:01:41.740Z,12.30
2019-05-13T19:04:11.460Z,12.30
2019-05-13T19:06:42.053Z,12.30
2019-05-13T19:09:11.224Z,12.30
2019-05-13T19:11:42.746Z,12.20
2019-05-13T19:14:12.257Z,12.20
2019-05-13T19:16:42.172Z,12.20
2019-05-13T19:19:15.544Z,12.20
2019-05-13T19:21:42.475Z,12.10
2019-05-13T19:24:11.130Z,12.10
2019-05-13T19:26:41.662Z,12.00
2019-05-13T19:29:11.550Z,12.00
2019-05-13T19:31:41.756Z,12.00
2019-05-13T19:34:12.394Z,11.90
2019-05-13T19:36:41.997Z,11.80
2019-05-13T19:39:11.391Z,11.80
2019-05-13T19:41:42.189Z,11.80
2019-05-13T19:44:11.036Z,11.80
2019-05-13T19:46:41.883Z,11.90
2019-05-13T19:49:13.697Z,11.80
2019-05-13T19:51:41.731Z,11.70
2019-05-13T19:54:11.589Z,11.60
2019-05-13T19:56:39.864Z,11.60
2019-05-13T19:59:08.466Z,11.60
2019-05-13T20:01:37.128Z,11.50
2019-05-13T20:04:05.002Z,11.50
2019-05-13T20:06:33.524Z,11.50
2019-05-13T20:09:02.432Z,11.40
2019-05-13T20:11:31.035Z,11.40
2019-05-13T20:14:01.359Z,11.30
2019-05-13T20:16:32.106Z,11.30
2019-05-13T20:19:01.508Z,11.00
2019-05-13T20:21:31.737Z,11.00
2019-05-13T20:23:59.529Z,10.90
2019-05-13T20:26:28.323Z,10.90
2019-05-13T20:28:57.120Z,10.90
2019-05-13T20:31:25.695Z,10.90
2019-05-13T20:33:54.486Z,10.80
2019-05-13T20:36:23.339Z,10.70
2019-05-13T20:38:51.922Z,10.80
2019-05-13T20:41:22.413Z,10.80
2019-05-13T20:43:52.072Z,10.80
2019-05-13T20:46:23.205Z,10.70
2019-05-13T20:48:52.617Z,10.80
2019-05-13T20:51:21.961Z,10.70
2019-05-13T20:53:51.768Z,10.60
2019-05-13T20:56:21.514Z,10.50
2019-05-13T20:58:51.562Z,10.40
2019-05-13T21:01:20.984Z,10.40
2019-05-13T21:03:51.576Z,10.40
2019-05-13T21:06:22.101Z,10.40
2019-05-13T21:08:52.199Z,10.30
2019-05-13T21:11:21.538Z,10.20
2019-05-13T21:13:51.748Z,10.10
2019-05-13T21:16:21.886Z,10.10
2019-05-13T21:18:51.145Z,10.10
2019-05-13T21:21:22.025Z,10.00
2019-05-13T21:23:52.545Z,10.00
2019-05-13T21:26:22.388Z,9.90
2019-05-13T21:28:52.212Z,9.90
2019-05-13T21:31:21.647Z,9.90
2019-05-13T21:33:51.373Z,9.90
2019-05-13T21:36:21.608Z,9.80
2019-05-13T21:38:51.000Z,9.80
2019-05-13T21:41:21.187Z,9.70
2019-05-13T21:43:52.041Z,9.60
2019-05-13T21:46:21.387Z,9.70
2019-05-13T21:48:49.269Z,9.70
2019-05-13T21:51:18.115Z,9.60
2019-05-13T21:53:47.013Z,9.60
2019-05-13T21:56:15.561Z,9.60
2019-05-13T21:58:44.162Z,9.60
2019-05-13T22:01:13.014Z,9.60
2019-05-13T22:03:42.160Z,9.50
2019-05-13T22:06:11.438Z,9.50
2019-05-13T22:08:41.286Z,9.40
2019-05-13T22:11:12.003Z,9.30
2019-05-13T22:13:41.976Z,9.30
2019-05-13T22:16:11.278Z,9.20
2019-05-13T22:18:41.779Z,9.20
2019-05-13T22:21:12.000Z,9.10
2019-05-13T22:23:41.271Z,9.10
2019-05-13T22:26:11.694Z,9.10
2019-05-13T22:28:41.747Z,9.10
2019-05-13T22:31:11.702Z,9.10
2019-05-13T22:33:41.314Z,9.10
2019-05-13T22:36:11.854Z,9.10
2019-05-13T22:38:42.623Z,9.00
2019-05-13T22:41:12.017Z,9.00
2019-05-13T22:43:52.379Z,9.00
2019-05-13T22:46:13.885Z,8.90
2019-05-13T22:48:42.441Z,8.90
2019-05-13T22:51:11.825Z,8.90
2019-05-13T22:53:42.201Z,8.90
2019-05-13T22:56:11.578Z,8.80
2019-05-13T22:58:41.210Z,8.70
2019-05-13T23:01:11.543Z,8.70
2019-05-13T23:03:41.247Z,8.60
2019-05-13T23:06:12.083Z,8.60
2019-05-13T23:08:41.463Z,8.60
2019-05-13T23:11:10.095Z,8.60
2019-05-13T23:13:38.877Z,8.60
2019-05-13T23:16:07.655Z,8.50
2019-05-13T23:18:36.248Z,8.40
2019-05-13T23:21:04.808Z,8.40
2019-05-13T23:23:33.591Z,8.40
2019-05-13T23:26:02.116Z,8.30
2019-05-13T23:28:32.262Z,8.40
2019-05-13T23:31:01.843Z,8.40
2019-05-13T23:33:31.461Z,8.30
2019-05-13T23:36:01.493Z,8.30
2019-05-13T23:38:31.930Z,8.20
2019-05-13T23:41:02.177Z,8.20
2019-05-13T23:43:31.431Z,8.20
2019-05-13T23:46:01.203Z,8.20
2019-05-13T23:48:32.077Z,8.30
2019-05-13T23:51:01.443Z,8.30
2019-05-13T23:53:31.332Z,8.20
2019-05-13T23:56:01.952Z,8.20
2019-05-13T23:58:32.153Z,8.20
